Time;durP1;ratioP1;P1;durP2;ratioP2;P2;SDS_P1;SDS_P2;PMS_P1;PMS_P2;Temp;Humidity;BMP_temperature;BMP_pressure;BME280_temperature;BME280_humidity;BME280_pressure;Samples;Min_cycle;Max_cycle;Signal;HPM_P1;HPM_P2
2021/10/01 00:02:09;;;;;;;3.70;1.30;;;11.60;99.90;;;;;;4994527;28;20216;-81
2021/10/01 00:04:36;;;;;;;4.27;1.10;;;11.70;99.90;;;;;;4994303;28;20222;-81
2021/10/01 00:07:01;;;;;;;3.33;0.90;;;11.70;99.90;;;;;;4994248;28;20194;-81
2021/10/01 00:09:27;;;;;;;2.60;1.07;;;11.70;99.90;;;;;;4993800;28;20586;-81
2021/10/01 00:11:53;;;;;;;3.10;1.10;;;11.70;99.90;;;;;;4994085;28;20183;-81
2021/10/01 00:14:22;;;;;;;4.73;1.40;;;11.70;99.90;;;;;;4993895;28;20204;-81
2021/10/01 00:16:48;;;;;;;3.57;1.00;;;11.70;99.90;;;;;;4993684;28;20650;-81
2021/10/01 00:19:14;;;;;;;5.13;1.40;;;11.70;99.90;;;;;;4993386;28;20184;-81
2021/10/01 00:21:40;;;;;;;5.30;1.33;;;11.70;99.90;;;;;;4993456;28;20215;-80
2021/10/01 00:24:08;;;;;;;5.87;1.10;;;11.70;99.90;;;;;;4993726;28;20180;-81
2021/10/01 00:26:38;;;;;;;4.87;1.23;;;11.60;99.90;;;;;;4994201;28;20242;-81
2021/10/01 00:29:04;;;;;;;4.60;1.73;;;11.60;99.90;;;;;;4993296;28;20622;-81
2021/10/01 00:31:29;;;;;;;5.27;1.07;;;11.50;99.90;;;;;;4993578;28;20275;-81
2021/10/01 00:33:55;;;;;;;2.97;1.00;;;11.50;99.90;;;;;;4993683;28;20195;-81
2021/10/01 00:36:20;;;;;;;3.90;1.27;;;11.50;99.90;;;;;;4993751;28;20176;-81
2021/10/01 00:38:46;;;;;;;3.77;1.23;;;11.50;99.90;;;;;;4993235;28;20187;-81
2021/10/01 00:41:11;;;;;;;5.23;1.20;;;11.40;99.90;;;;;;4993430;28;20215;-81
2021/10/01 00:43:37;;;;;;;3.93;1.03;;;11.40;99.90;;;;;;5009948;28;20259;-81
2021/10/01 00:46:02;;;;;;;2.77;1.00;;;11.40;99.90;;;;;;5009390;28;20250;-81
2021/10/01 00:48:28;;;;;;;2.73;0.90;;;11.40;99.90;;;;;;4993171;28;20180;-81
2021/10/01 00:50:54;;;;;;;7.57;1.23;;;11.50;99.90;;;;;;5009925;28;20183;-81
2021/10/01 00:53:19;;;;;;;4.20;1.17;;;11.50;99.90;;;;;;4993496;28;20230;-81
2021/10/01 00:55:45;;;;;;;6.17;1.30;;;11.60;99.90;;;;;;4993572;28;20274;-81
2021/10/01 00:58:10;;;;;;;3.73;1.13;;;11.50;99.90;;;;;;5012720;28;20183;-81
2021/10/01 01:00:46;;;;;;;3.33;1.10;;;11.50;99.90;;;;;;4993709;28;20552;-81
2021/10/01 01:03:12;;;;;;;3.40;1.20;;;11.50;99.90;;;;;;4993516;28;20590;-81
2021/10/01 01:05:52;;;;;;;4.73;1.23;;;11.40;99.90;;;;;;4993209;28;20220;-81
2021/10/01 01:08:20;;;;;;;6.77;1.30;;;11.40;99.90;;;;;;4992395;28;20176;-81
2021/10/01 01:10:52;;;;;;;2.60;1.17;;;11.30;99.90;;;;;;5009195;28;20262;-81
2021/10/01 01:13:27;;;;;;;3.53;1.00;;;11.30;99.90;;;;;;4992484;28;20254;-81
2021/10/01 01:15:57;;;;;;;3.40;1.27;;;11.30;99.90;;;;;;4992397;28;20686;-81
2021/10/01 01:18:32;;;;;;;2.33;1.17;;;11.20;99.90;;;;;;4993064;28;20246;-81
2021/10/01 01:21:00;;;;;;;4.03;1.20;;;11.20;99.90;;;;;;4992794;28;20207;-81
2021/10/01 01:24:03;;;;;;;3.77;1.23;;;11.10;99.90;;;;;;4993084;28;20176;-81
2021/10/01 01:26:32;;;;;;;3.40;1.00;;;11.10;99.90;;;;;;4994296;28;20175;-81
2021/10/01 01:29:06;;;;;;;6.63;1.33;;;11.10;99.90;;;;;;4992850;28;20175;-81
2021/10/01 01:31:46;;;;;;;2.67;1.10;;;11.10;99.90;;;;;;4994831;28;20182;-81
2021/10/01 01:34:39;;;;;;;4.47;1.10;;;11.10;99.90;;;;;;5013762;28;20192;-81
2021/10/01 01:37:09;;;;;;;2.87;1.20;;;11.10;99.90;;;;;;5015932;28;20200;-81
2021/10/01 01:39:35;;;;;;;4.67;1.23;;;11.00;99.90;;;;;;5013206;28;20178;-81
2021/10/01 01:42:01;;;;;;;2.63;1.00;;;11.00;99.90;;;;;;4992970;28;20270;-81
2021/10/01 01:44:27;;;;;;;4.07;1.37;;;11.00;99.90;;;;;;4992927;28;20255;-81
2021/10/01 01:46:53;;;;;;;4.17;1.17;;;11.00;99.90;;;;;;5009240;28;20173;-81
2021/10/01 01:49:20;;;;;;;3.00;1.20;;;11.00;99.90;;;;;;4992470;28;20195;-81
2021/10/01 01:51:45;;;;;;;1.77;0.90;;;11.00;99.90;;;;;;4992624;28;20187;-81
2021/10/01 01:54:11;;;;;;;6.10;1.30;;;11.00;99.90;;;;;;5009360;28;20191;-81
2021/10/01 01:56:37;;;;;;;3.90;1.20;;;11.00;99.90;;;;;;5009501;28;20253;-81
2021/10/01 01:59:03;;;;;;;4.10;1.17;;;11.00;99.90;;;;;;4994306;28;20183;-81
2021/10/01 02:01:29;;;;;;;1.93;0.90;;;10.90;99.90;;;;;;4996559;28;20203;-81
2021/10/01 02:03:54;;;;;;;2.50;1.10;;;10.90;99.90;;;;;;5013005;28;20231;-81
2021/10/01 02:06:20;;;;;;;3.10;1.10;;;10.90;99.90;;;;;;4996650;28;20240;-81
2021/10/01 02:08:45;;;;;;;2.77;1.10;;;10.90;99.90;;;;;;4996461;28;20176;-81
2021/10/01 02:11:11;;;;;;;2.93;1.10;;;10.90;99.90;;;;;;4996490;28;20179;-81
2021/10/01 02:13:37;;;;;;;2.50;1.03;;;10.90;99.90;;;;;;4996214;28;20187;-81
2021/10/01 02:16:03;;;;;;;4.03;1.17;;;10.80;99.90;;;;;;5012399;28;20233;-81
2021/10/01 02:18:29;;;;;;;4.67;1.17;;;10.80;99.90;;;;;;5012091;28;20182;-81
2021/10/01 02:20:55;;;;;;;3.17;1.10;;;10.80;99.90;;;;;;4996202;28;20199;-81
2021/10/01 02:23:21;;;;;;;4.00;1.20;;;10.80;99.90;;;;;;4996317;28;20180;-81
2021/10/01 02:26:47;;;;;;;2.57;1.00;;;10.70;99.90;;;;;;4996136;28;20654;-81
2021/10/01 02:28:47;;;;;;;4.17;1.60;;;10.70;99.90;;;;;;4995593;28;20184;-81
2021/10/01 02:31:19;;;;;;;3.53;1.00;;;10.70;99.90;;;;;;4995674;28;20194;-81
2021/10/01 02:33:45;;;;;;;5.17;1.30;;;10.70;99.90;;;;;;4995676;28;20183;-81
2021/10/01 02:36:11;;;;;;;4.40;1.10;;;10.70;99.90;;;;;;4996087;28;20614;-81
2021/10/01 02:38:36;;;;;;;2.53;0.90;;;10.70;99.90;;;;;;4995825;28;20179;-81
2021/10/01 02:41:02;;;;;;;3.70;1.27;;;10.60;99.90;;;;;;4995603;28;20222;-81
2021/10/01 02:43:28;;;;;;;2.47;1.00;;;10.60;99.90;;;;;;5011830;28;20175;-81
2021/10/01 02:45:53;;;;;;;3.17;1.23;;;10.60;99.90;;;;;;4995391;28;20199;-81
2021/10/01 02:48:19;;;;;;;3.83;1.10;;;10.60;99.90;;;;;;4995464;28;20172;-81
2021/10/01 02:50:47;;;;;;;2.93;1.10;;;10.50;99.90;;;;;;4995846;28;20187;-80
2021/10/01 02:53:27;;;;;;;2.57;0.93;;;10.50;99.90;;;;;;5011810;28;20578;-81
2021/10/01 02:56:07;;;;;;;2.47;1.00;;;10.60;99.90;;;;;;5010865;28;20199;-81
2021/10/01 02:58:37;;;;;;;5.43;1.10;;;10.60;99.90;;;;;;4994010;28;20187;-81
2021/10/01 03:01:05;;;;;;;3.50;1.00;;;10.50;99.90;;;;;;4995153;28;20596;-81
2021/10/01 03:03:38;;;;;;;3.83;1.40;;;10.50;99.90;;;;;;5011298;28;20226;-81
2021/10/01 03:06:03;;;;;;;3.47;0.90;;;10.50;99.90;;;;;;5110094;23;20695;-81
2021/10/01 03:08:30;;;;;;;3.40;0.90;;;10.50;99.90;;;;;;5040766;28;20183;-81
2021/10/01 03:10:56;;;;;;;3.50;1.10;;;10.50;99.90;;;;;;5040314;28;20216;-82
2021/10/01 03:13:22;;;;;;;3.53;1.10;;;10.50;99.90;;;;;;5057478;28;20186;-81
2021/10/01 03:15:54;;;;;;;3.73;1.10;;;10.60;99.90;;;;;;5070823;28;20717;-81
2021/10/01 03:18:19;;;;;;;2.73;1.10;;;10.60;99.90;;;;;;5060114;28;20182;-81
2021/10/01 03:20:46;;;;;;;2.60;1.00;;;10.60;99.90;;;;;;5060002;28;20204;-82
2021/10/01 03:23:14;;;;;;;4.13;1.17;;;10.70;99.90;;;;;;5043373;28;20264;-81
2021/10/01 03:25:39;;;;;;;3.77;1.00;;;10.70;99.90;;;;;;5043736;28;20295;-81
2021/10/01 03:28:06;;;;;;;6.40;1.33;;;10.70;99.90;;;;;;5043289;28;20659;-82
2021/10/01 03:30:31;;;;;;;2.53;0.97;;;10.70;99.90;;;;;;5043955;28;20186;-82
2021/10/01 03:32:57;;;;;;;2.67;0.93;;;10.70;99.90;;;;;;5044329;28;20245;-84
2021/10/01 03:35:22;;;;;;;3.30;1.10;;;10.70;99.90;;;;;;5044166;28;20559;-85
2021/10/01 03:37:48;;;;;;;3.00;1.07;;;10.70;99.90;;;;;;5044216;28;20181;-81
2021/10/01 03:40:14;;;;;;;2.57;0.90;;;10.70;99.90;;;;;;5044152;28;20184;-83
2021/10/01 03:42:40;;;;;;;2.53;1.00;;;10.70;99.90;;;;;;5042777;28;20180;-82
2021/10/01 03:45:06;;;;;;;2.10;0.80;;;10.70;99.90;;;;;;5041506;28;20644;-83
2021/10/01 03:47:32;;;;;;;5.83;0.90;;;10.70;99.90;;;;;;5042151;28;20177;-80
2021/10/01 03:49:57;;;;;;;2.87;0.90;;;10.60;99.90;;;;;;5044684;28;20186;-82
2021/10/01 03:52:23;;;;;;;4.10;1.20;;;10.70;99.90;;;;;;5060170;28;20192;-84
2021/10/01 03:54:51;;;;;;;5.00;0.97;;;10.70;99.90;;;;;;5043395;28;20196;-81
2021/10/01 03:57:16;;;;;;;5.37;1.00;;;10.70;99.90;;;;;;5043713;28;20230;-80
2021/10/01 03:59:42;;;;;;;3.17;1.00;;;10.70;99.90;;;;;;5043007;28;20184;-81
2021/10/01 04:02:07;;;;;;;5.43;1.20;;;10.70;99.90;;;;;;5059869;28;20621;-81
2021/10/01 04:04:33;;;;;;;4.00;1.17;;;10.70;99.90;;;;;;5043916;28;20250;-85
2021/10/01 04:07:00;;;;;;;3.30;1.03;;;10.70;99.90;;;;;;5059695;28;20176;-81
2021/10/01 04:09:25;;;;;;;2.43;1.00;;;10.80;99.90;;;;;;5043918;28;20177;-83
2021/10/01 04:11:53;;;;;;;3.13;1.17;;;10.70;99.90;;;;;;5076171;28;20215;-82
2021/10/01 04:14:20;;;;;;;2.53;1.00;;;10.80;99.90;;;;;;5043198;28;20743;-81
2021/10/01 04:16:45;;;;;;;4.73;1.17;;;10.80;99.90;;;;;;5042683;28;20656;-84
2021/10/01 04:19:11;;;;;;;4.73;1.13;;;10.80;99.90;;;;;;5041988;28;20204;-81
2021/10/01 04:21:36;;;;;;;2.43;1.00;;;10.80;99.90;;;;;;5041652;28;20208;-81
2021/10/01 04:24:02;;;;;;;4.37;1.17;;;10.80;99.90;;;;;;5059988;28;20718;-82
2021/10/01 04:26:27;;;;;;;2.27;1.00;;;10.80;99.90;;;;;;5044179;28;20741;-84
2021/10/01 04:28:53;;;;;;;2.87;1.00;;;10.70;99.90;;;;;;5059494;28;20200;-82
2021/10/01 04:31:19;;;;;;;2.30;0.97;;;10.70;99.90;;;;;;5075938;28;20656;-82
2021/10/01 04:33:45;;;;;;;4.07;1.00;;;10.80;99.90;;;;;;5059893;28;20183;-81
2021/10/01 04:36:12;;;;;;;2.67;0.90;;;10.80;99.90;;;;;;5058847;28;20204;-82
2021/10/01 04:38:38;;;;;;;3.77;1.10;;;10.80;99.90;;;;;;5043391;28;20180;-83
2021/10/01 04:41:04;;;;;;;2.47;1.00;;;10.90;99.90;;;;;;5042233;28;20212;-85
2021/10/01 04:43:29;;;;;;;4.50;1.13;;;10.90;99.90;;;;;;5042015;28;20176;-81
2021/10/01 04:45:56;;;;;;;3.53;1.00;;;11.00;99.90;;;;;;5041651;28;20206;-81
2021/10/01 04:48:21;;;;;;;2.13;0.90;;;11.00;99.90;;;;;;5041815;28;20176;-81
2021/10/01 04:50:47;;;;;;;3.03;1.00;;;11.00;99.90;;;;;;5042118;28;20184;-83
2021/10/01 04:53:12;;;;;;;3.33;1.10;;;11.00;99.90;;;;;;5059439;28;20191;-84
2021/10/01 04:55:38;;;;;;;3.33;1.00;;;11.00;99.90;;;;;;5042043;28;20208;-81
2021/10/01 04:58:05;;;;;;;3.97;1.17;;;11.10;99.90;;;;;;5059612;28;20172;-81
2021/10/01 05:00:30;;;;;;;2.27;0.80;;;11.00;99.90;;;;;;5042483;28;20271;-81
2021/10/01 05:02:56;;;;;;;3.63;1.27;;;11.00;99.90;;;;;;5042791;28;20211;-81
2021/10/01 05:05:21;;;;;;;3.33;1.10;;;11.00;99.90;;;;;;5042652;28;20303;-82
2021/10/01 05:07:47;;;;;;;1.27;0.90;;;11.00;99.90;;;;;;5042998;28;20180;-82
2021/10/01 05:10:13;;;;;;;3.63;1.10;;;10.90;99.90;;;;;;5042719;28;20753;-83
2021/10/01 05:12:39;;;;;;;3.63;0.90;;;10.90;99.90;;;;;;5040193;28;20184;-84
2021/10/01 05:15:07;;;;;;;5.07;1.00;;;10.90;99.90;;;;;;5041663;28;20257;-82
2021/10/01 05:17:37;;;;;;;6.70;0.97;;;10.90;99.90;;;;;;5042091;28;20187;-88
2021/10/01 05:20:04;;;;;;;2.83;1.17;;;10.80;99.90;;;;;;5076067;28;20719;-81
2021/10/01 05:22:30;;;;;;;4.10;1.00;;;10.90;99.90;;;;;;5042072;28;20191;-84
2021/10/01 05:24:55;;;;;;;6.47;0.90;;;10.90;99.90;;;;;;5040015;28;20208;-85
2021/10/01 05:27:21;;;;;;;4.17;0.97;;;10.80;99.90;;;;;;5040285;28;20185;-85
2021/10/01 05:29:46;;;;;;;4.00;0.80;;;10.90;99.90;;;;;;5039755;28;20578;-85
2021/10/01 05:32:12;;;;;;;3.47;1.10;;;10.90;99.90;;;;;;5072535;28;20225;-84
2021/10/01 05:34:37;;;;;;;3.83;1.00;;;10.80;99.90;;;;;;5040688;28;20212;-85
2021/10/01 05:37:03;;;;;;;5.10;0.93;;;10.90;99.90;;;;;;5073473;28;20188;-85
2021/10/01 05:39:29;;;;;;;2.73;1.10;;;10.90;99.90;;;;;;5040095;28;20459;-84
2021/10/01 05:41:55;;;;;;;3.47;1.00;;;10.90;99.90;;;;;;5055899;28;20195;-85
2021/10/01 05:44:21;;;;;;;3.37;1.10;;;10.90;99.90;;;;;;5041865;28;20180;-85
2021/10/01 05:46:47;;;;;;;6.87;1.10;;;10.80;99.90;;;;;;5040815;28;20176;-85
2021/10/01 05:49:26;;;;;;;3.40;1.10;;;10.90;99.90;;;;;;5046637;28;20197;-86
2021/10/01 05:51:53;;;;;;;4.60;1.20;;;10.90;99.90;;;;;;5049877;28;20694;-83
2021/10/01 05:54:23;;;;;;;4.70;1.00;;;10.90;99.90;;;;;;5041461;28;20188;-82
2021/10/01 05:56:56;;;;;;;6.63;1.30;;;10.90;99.90;;;;;;5066695;28;20207;-82
2021/10/01 05:59:37;;;;;;;5.40;1.10;;;11.00;99.90;;;;;;5071990;28;20182;-79
2021/10/01 06:02:03;;;;;;;3.80;1.20;;;11.00;99.90;;;;;;5044007;28;20214;-88
2021/10/01 06:04:29;;;;;;;3.40;1.10;;;11.10;99.90;;;;;;5058364;28;20200;-84
2021/10/01 06:06:55;;;;;;;2.23;0.90;;;11.20;99.90;;;;;;5038377;28;20180;-84
2021/10/01 06:09:22;;;;;;;4.17;1.43;;;11.30;99.90;;;;;;5071753;28;20173;-84
2021/10/01 06:11:48;;;;;;;3.47;1.03;;;11.40;99.90;;;;;;5038620;28;20656;-82
2021/10/01 06:14:19;;;;;;;2.93;0.80;;;11.30;99.90;;;;;;5054355;28;20223;-84
2021/10/01 06:16:44;;;;;;;2.50;1.30;;;11.40;99.90;;;;;;5056147;28;20252;-86
2021/10/01 06:19:10;;;;;;;2.83;0.93;;;11.30;99.90;;;;;;5054005;28;20259;-85
2021/10/01 06:21:35;;;;;;;3.90;1.20;;;11.40;99.90;;;;;;5037595;28;20269;-85
2021/10/01 06:24:01;;;;;;;2.93;0.90;;;11.50;99.90;;;;;;5038135;28;20185;-85
2021/10/01 06:26:26;;;;;;;2.40;0.80;;;11.60;99.90;;;;;;5037805;28;20205;-85
2021/10/01 06:28:52;;;;;;;2.43;0.90;;;11.70;99.90;;;;;;5054308;28;20170;-85
2021/10/01 06:31:17;;;;;;;2.83;0.90;;;11.70;99.90;;;;;;5038433;28;20182;-85
2021/10/01 06:33:43;;;;;;;4.40;1.20;;;11.80;99.90;;;;;;5057648;28;20276;-87
2021/10/01 06:36:09;;;;;;;1.83;0.90;;;11.90;99.90;;;;;;5055804;28;20204;-86
2021/10/01 06:38:34;;;;;;;3.93;0.93;;;12.00;99.90;;;;;;5039271;28;20178;-82
2021/10/01 06:41:00;;;;;;;2.20;0.90;;;12.10;99.90;;;;;;5055234;28;20225;-83
2021/10/01 06:43:27;;;;;;;1.90;0.80;;;12.10;99.90;;;;;;5039230;28;20652;-83
2021/10/01 06:45:54;;;;;;;4.13;0.90;;;12.10;99.90;;;;;;5042305;28;20668;-84
2021/10/01 07:34:38;;;;;;;2.23;0.83;;;13.90;99.90;;;;;;5059221;28;20703;-82
2021/10/01 07:35:50;;;;;;;2.00;0.77;;;14.30;99.90;;;;;;5058765;28;20213;-82
2021/10/01 08:21:42;;;;;;;2.63;0.80;;;16.40;99.90;;;;;;5059524;28;20209;-82
2021/10/01 08:24:07;;;;;;;4.80;1.20;;;16.30;99.90;;;;;;5042409;28;20182;-82
2021/10/01 08:26:33;;;;;;;3.40;0.80;;;16.10;99.90;;;;;;5041744;28;20199;-82
2021/10/01 08:28:58;;;;;;;2.77;0.80;;;16.10;99.90;;;;;;5041781;28;20336;-82
2021/10/01 08:31:27;;;;;;;3.00;0.73;;;16.30;99.90;;;;;;5042006;28;20182;-82
2021/10/01 08:33:53;;;;;;;3.73;0.80;;;16.50;99.90;;;;;;5059222;28;20224;-82
2021/10/01 08:36:19;;;;;;;4.07;0.80;;;16.70;99.90;;;;;;5041812;28;20202;-82
2021/10/01 08:38:45;;;;;;;2.40;0.80;;;17.10;99.90;;;;;;5041491;28;20200;-81
2021/10/01 08:41:14;;;;;;;3.67;1.10;;;17.40;99.90;;;;;;5057688;28;20209;-82
2021/10/01 08:43:43;;;;;;;4.50;1.10;;;17.70;99.90;;;;;;5059551;28;20197;-82
2021/10/01 08:46:09;;;;;;;4.17;0.80;;;17.60;99.90;;;;;;5042726;28;20202;-81
2021/10/01 08:48:36;;;;;;;1.50;0.77;;;17.50;99.90;;;;;;5043109;28;20178;-82
2021/10/01 08:51:01;;;;;;;3.50;0.87;;;17.80;99.90;;;;;;5042997;28;20201;-81
2021/10/01 08:53:27;;;;;;;2.80;0.80;;;18.20;99.90;;;;;;5042903;28;20174;-82
2021/10/01 08:55:52;;;;;;;3.53;0.90;;;18.30;99.90;;;;;;5043616;28;20273;-82
2021/10/01 08:58:21;;;;;;;1.83;0.80;;;18.00;99.90;;;;;;5043026;28;20522;-82
2021/10/01 09:00:49;;;;;;;3.63;0.83;;;18.10;99.90;;;;;;5059878;28;20194;-82
2021/10/01 09:03:15;;;;;;;6.27;1.00;;;18.00;99.90;;;;;;5040711;28;20209;-84
2021/10/01 09:05:41;;;;;;;3.03;0.90;;;18.20;99.90;;;;;;5066836;28;20221;-83
2021/10/01 09:08:17;;;;;;;5.57;0.80;;;18.60;99.90;;;;;;5050870;28;20201;-83
2021/10/01 09:10:59;;;;;;;1.73;0.97;;;18.50;99.90;;;;;;5051064;28;20249;-83
2021/10/01 09:13:24;;;;;;;5.27;0.90;;;18.60;99.90;;;;;;5060253;28;20193;-82
2021/10/01 09:16:06;;;;;;;3.87;0.93;;;18.40;99.90;;;;;;5059353;28;20665;-82
2021/10/01 09:18:34;;;;;;;5.17;1.10;;;18.00;99.90;;;;;;5043210;28;20178;-82
2021/10/01 09:21:10;;;;;;;5.50;1.13;;;18.30;99.90;;;;;;5041302;28;20205;-83
2021/10/01 09:23:44;;;;;;;2.67;0.90;;;18.80;99.90;;;;;;5058235;28;20180;-82
2021/10/01 09:26:17;;;;;;;4.10;0.90;;;19.00;99.90;;;;;;5053803;28;20198;-85
2021/10/01 09:28:46;;;;;;;2.40;0.80;;;19.40;99.90;;;;;;5042424;28;20167;-82
2021/10/01 09:31:42;;;;;;;5.23;1.10;;;19.40;99.90;;;;;;5042126;28;20196;-82
2021/10/01 09:34:31;;;;;;;4.27;1.10;;;19.10;99.90;;;;;;5058073;28;20182;-82
2021/10/01 09:37:01;;;;;;;2.90;0.93;;;19.00;99.90;;;;;;5041640;28;20268;-82
2021/10/01 09:39:30;;;;;;;2.67;0.90;;;19.00;99.90;;;;;;5042605;28;20653;-82
2021/10/01 09:41:57;;;;;;;3.37;0.87;;;19.00;99.90;;;;;;5043481;28;20209;-82
2021/10/01 09:44:26;;;;;;;3.93;0.80;;;19.20;99.90;;;;;;5042973;28;20170;-82
2021/10/01 09:46:52;;;;;;;1.63;0.70;;;19.40;99.90;;;;;;5042741;28;20178;-82
2021/10/01 09:49:19;;;;;;;4.67;0.97;;;19.50;99.90;;;;;;5042964;28;20184;-82
2021/10/01 09:51:49;;;;;;;3.43;1.00;;;19.40;99.90;;;;;;5043352;28;20182;-82
2021/10/01 09:54:16;;;;;;;2.87;0.70;;;19.20;99.90;;;;;;5043095;28;20237;-82
2021/10/01 09:56:42;;;;;;;1.93;0.80;;;18.90;99.90;;;;;;5060200;28;20170;-82
2021/10/01 09:59:10;;;;;;;3.07;0.83;;;18.70;99.90;;;;;;5042923;28;20181;-82
2021/10/01 10:01:55;;;;;;;2.50;0.70;;;18.80;99.90;;;;;;5044487;28;20229;-82
2021/10/01 10:04:21;;;;;;;4.03;0.80;;;19.10;99.90;;;;;;5044558;28;20571;-82
2021/10/01 10:06:47;;;;;;;2.20;0.77;;;19.10;99.90;;;;;;5042836;28;20328;-82
2021/10/01 10:09:13;;;;;;;3.00;0.80;;;19.20;99.90;;;;;;5043258;28;20210;-82
2021/10/01 10:11:42;;;;;;;5.30;1.13;;;19.30;99.90;;;;;;5061096;28;20176;-82
2021/10/01 10:14:09;;;;;;;2.20;0.70;;;19.30;99.90;;;;;;5044514;28;20200;-82
2021/10/01 10:16:34;;;;;;;2.40;0.70;;;19.30;99.90;;;;;;5044772;28;20207;-82
2021/10/01 10:19:04;;;;;;;3.43;0.90;;;19.40;99.90;;;;;;5044902;28;20209;-81
2021/10/01 10:21:30;;;;;;;4.40;0.90;;;19.50;99.90;;;;;;5048805;28;20212;-81
2021/10/01 10:23:57;;;;;;;3.63;0.80;;;19.50;99.90;;;;;;5049904;28;20641;-82
2021/10/01 10:26:24;;;;;;;3.40;0.90;;;19.40;99.90;;;;;;5048525;28;20662;-82
2021/10/01 10:28:51;;;;;;;6.83;1.13;;;19.20;99.90;;;;;;5048730;28;20200;-82
2021/10/01 10:31:17;;;;;;;3.53;0.87;;;19.00;99.90;;;;;;5064951;28;20182;-82
2021/10/01 10:33:43;;;;;;;2.30;0.70;;;18.90;99.90;;;;;;5047853;28;20181;-82
2021/10/01 10:36:28;;;;;;;2.77;0.90;;;19.00;99.90;;;;;;5063154;28;20783;-84
2021/10/01 10:38:59;;;;;;;3.63;1.00;;;19.20;99.90;;;;;;5064594;28;20183;-82
2021/10/01 10:41:29;;;;;;;2.47;1.10;;;19.30;99.90;;;;;;5051972;28;20232;-81
2021/10/01 10:43:55;;;;;;;1.83;0.70;;;19.20;99.90;;;;;;5048301;28;20209;-82
2021/10/01 10:46:36;;;;;;;2.30;0.73;;;19.20;99.90;;;;;;5048241;28;20556;-82
2021/10/01 10:49:17;;;;;;;4.87;1.00;;;19.10;99.90;;;;;;5064989;28;20548;-82
2021/10/01 10:52:01;;;;;;;3.37;0.93;;;19.00;99.90;;;;;;5062966;28;20182;-82
2021/10/01 10:54:35;;;;;;;3.87;0.90;;;19.10;99.90;;;;;;5063440;28;20551;-81
2021/10/01 10:57:16;;;;;;;4.97;1.00;;;19.20;99.90;;;;;;5045623;28;20186;-81
2021/10/01 10:59:54;;;;;;;3.97;0.90;;;19.20;99.90;;;;;;5062180;28;20186;-81
2021/10/01 11:02:41;;;;;;;5.73;1.10;;;19.20;99.90;;;;;;5061334;28;20202;-81
2021/10/01 11:05:20;;;;;;;2.17;0.90;;;19.20;99.90;;;;;;5059189;28;20815;-81
2021/10/01 11:07:50;;;;;;;3.00;0.80;;;19.00;99.90;;;;;;5059279;28;20665;-81
2021/10/01 11:10:46;;;;;;;3.57;0.97;;;19.00;99.90;;;;;;5043324;28;20217;-81
2021/10/01 11:13:18;;;;;;;3.83;0.90;;;19.00;99.90;;;;;;5042397;28;20189;-81
2021/10/01 11:16:09;;;;;;;5.53;0.90;;;19.00;99.90;;;;;;5059899;28;20202;-81
2021/10/01 11:18:46;;;;;;;2.50;0.70;;;19.00;99.90;;;;;;5060997;28;20539;-81
2021/10/01 11:21:37;;;;;;;3.17;0.70;;;19.00;99.90;;;;;;5060216;28;20227;-81
2021/10/01 11:24:08;;;;;;;1.50;0.50;;;19.00;99.90;;;;;;5043925;28;20178;-81
2021/10/01 11:26:47;;;;;;;4.70;0.90;;;18.90;99.90;;;;;;5060690;28;20207;-82
2021/10/01 11:29:26;;;;;;;4.20;0.87;;;18.90;99.90;;;;;;5043169;28;20202;-81
2021/10/01 11:32:00;;;;;;;7.23;1.87;;;19.00;99.90;;;;;;5043538;28;20274;-81
2021/10/01 11:34:56;;;;;;;2.93;1.00;;;19.00;99.90;;;;;;5043123;28;20185;-81
2021/10/01 11:37:31;;;;;;;4.60;0.90;;;19.00;99.90;;;;;;5029186;28;20186;-81
2021/10/01 11:39:59;;;;;;;3.10;0.70;;;19.20;99.90;;;;;;5043883;28;20268;-81
2021/10/01 11:42:27;;;;;;;3.30;0.90;;;19.20;99.90;;;;;;5043745;28;20217;-81
2021/10/01 11:44:53;;;;;;;2.10;0.77;;;19.20;99.90;;;;;;5044221;28;20669;-81
2021/10/01 11:47:19;;;;;;;4.77;1.00;;;19.10;99.90;;;;;;5043688;28;20280;-81
2021/10/01 11:49:55;;;;;;;3.37;0.83;;;19.10;99.90;;;;;;5042968;28;20212;-81
2021/10/01 11:52:21;;;;;;;4.17;1.03;;;19.10;99.90;;;;;;5043398;28;20645;-81
2021/10/01 11:54:51;;;;;;;2.33;0.90;;;19.20;99.90;;;;;;5043096;28;20209;-81
2021/10/01 11:57:17;;;;;;;2.60;0.87;;;19.30;99.90;;;;;;5059895;28;20182;-81
2021/10/01 11:59:57;;;;;;;2.40;0.73;;;19.40;99.90;;;;;;5043806;28;20271;-81
2021/10/01 12:02:33;;;;;;;3.33;1.00;;;19.40;99.90;;;;;;5043371;28;20221;-81
2021/10/01 12:05:15;;;;;;;3.80;0.80;;;19.40;99.90;;;;;;5043561;28;20524;-81
2021/10/01 12:07:48;;;;;;;3.50;0.90;;;19.50;99.90;;;;;;5042868;28;20177;-81
2021/10/01 12:10:14;;;;;;;5.67;1.10;;;19.50;99.90;;;;;;5042569;28;20551;-81
2021/10/01 12:12:59;;;;;;;2.70;1.00;;;19.60;99.90;;;;;;5042938;28;20182;-81
2021/10/01 12:15:41;;;;;;;3.47;0.90;;;19.70;99.90;;;;;;5042106;28;20206;-80
2021/10/01 12:18:27;;;;;;;3.60;1.00;;;19.80;99.90;;;;;;5042664;28;20186;-81
2021/10/01 12:20:53;;;;;;;5.93;1.10;;;19.80;99.90;;;;;;5059308;28;20612;-81
2021/10/01 12:23:35;;;;;;;2.87;0.90;;;19.70;99.90;;;;;;5040926;28;20213;-81
2021/10/01 12:26:15;;;;;;;3.50;0.97;;;19.60;99.90;;;;;;5055767;28;20606;-79
2021/10/01 12:28:41;;;;;;;3.53;0.90;;;19.60;99.90;;;;;;5057450;28;20196;-80
2021/10/01 12:31:07;;;;;;;2.97;0.80;;;19.50;99.90;;;;;;5056455;28;20310;-79
2021/10/01 12:33:32;;;;;;;6.63;0.80;;;19.40;99.90;;;;;;5022918;28;20211;-79
2021/10/01 12:35:58;;;;;;;2.13;0.80;;;19.40;99.90;;;;;;5022705;28;20622;-80
2021/10/01 12:38:24;;;;;;;3.47;0.80;;;19.20;99.90;;;;;;5037172;28;20178;-79
2021/10/01 12:41:10;;;;;;;5.93;0.83;;;19.20;99.90;;;;;;5037301;28;20582;-77
2021/10/01 12:43:46;;;;;;;2.53;0.80;;;19.20;99.90;;;;;;5036191;28;20527;-77
2021/10/01 12:46:13;;;;;;;3.87;0.90;;;19.20;99.90;;;;;;5036176;28;20221;-77
2021/10/01 12:48:38;;;;;;;3.00;0.77;;;19.20;99.90;;;;;;5036809;28;20178;-78
2021/10/01 12:51:21;;;;;;;5.57;1.07;;;19.20;99.90;;;;;;5020057;28;20698;-77
2021/10/01 12:53:47;;;;;;;2.07;0.80;;;19.20;99.90;;;;;;5040727;28;20178;-80
2021/10/01 12:56:18;;;;;;;4.73;0.80;;;19.10;99.90;;;;;;5074667;28;20669;-79
2021/10/01 12:58:44;;;;;;;1.70;0.70;;;19.10;99.90;;;;;;5052328;28;20188;-80
2021/10/01 13:01:18;;;;;;;4.00;0.80;;;19.10;99.90;;;;;;5058798;28;20193;-80
2021/10/01 13:03:48;;;;;;;3.23;1.00;;;19.00;99.90;;;;;;5061955;28;20176;-80
2021/10/01 13:06:29;;;;;;;3.53;0.80;;;19.10;99.90;;;;;;5058837;28;20209;-80
2021/10/01 13:08:55;;;;;;;1.93;0.73;;;19.00;99.90;;;;;;5044386;28;20168;-81
2021/10/01 13:11:20;;;;;;;2.20;0.70;;;19.00;99.90;;;;;;5067161;28;20543;-80
2021/10/01 13:13:46;;;;;;;3.37;0.80;;;19.00;99.90;;;;;;5052020;28;20595;-80
2021/10/01 13:16:13;;;;;;;4.07;0.93;;;19.00;99.90;;;;;;5061507;28;20573;-80
2021/10/01 13:18:40;;;;;;;2.30;0.60;;;18.90;99.90;;;;;;5058623;28;20181;-80
2021/10/01 13:21:15;;;;;;;2.20;0.80;;;18.90;99.90;;;;;;5061821;28;20197;-82
2021/10/01 13:23:42;;;;;;;3.97;0.80;;;19.00;99.90;;;;;;5067072;28;20186;-79
2021/10/01 13:26:11;;;;;;;2.63;0.80;;;19.10;99.90;;;;;;5038908;28;20669;-77
2021/10/01 13:28:37;;;;;;;3.77;0.70;;;19.10;99.90;;;;;;5052783;28;20236;-80
2021/10/01 13:31:03;;;;;;;2.07;0.60;;;19.10;99.90;;;;;;5036513;28;20649;-80
2021/10/01 13:33:28;;;;;;;2.23;0.73;;;19.10;99.90;;;;;;5036592;28;20182;-79
2021/10/01 13:35:55;;;;;;;2.47;0.70;;;19.00;99.90;;;;;;5053410;28;20205;-83
2021/10/01 13:38:29;;;;;;;1.97;0.80;;;19.00;99.90;;;;;;5036562;28;20182;-84
2021/10/01 13:40:55;;;;;;;2.33;0.77;;;19.00;99.90;;;;;;5037276;28;20202;-83
2021/10/01 13:43:20;;;;;;;1.07;0.67;;;19.00;99.90;;;;;;5038706;28;20598;-85
2021/10/01 13:45:46;;;;;;;2.40;0.70;;;19.10;99.90;;;;;;5036994;28;20197;-84
2021/10/01 13:48:13;;;;;;;2.27;0.80;;;19.00;99.90;;;;;;5036953;28;20202;-85
2021/10/01 13:50:40;;;;;;;1.70;0.60;;;19.00;99.90;;;;;;5038761;28;20178;-85
2021/10/01 13:53:05;;;;;;;1.13;0.60;;;19.00;99.90;;;;;;5038865;28;20178;-85
2021/10/01 13:55:31;;;;;;;4.10;0.90;;;19.10;99.90;;;;;;5042676;28;20214;-86
2021/10/01 13:57:56;;;;;;;5.37;0.80;;;19.00;99.90;;;;;;5041073;28;20174;-83
2021/10/01 14:00:23;;;;;;;3.27;0.70;;;19.00;99.90;;;;;;5043225;28;20265;-83
2021/10/01 14:02:49;;;;;;;1.90;0.70;;;18.90;99.90;;;;;;5044065;28;20182;-81
2021/10/01 14:05:15;;;;;;;2.47;0.80;;;18.90;99.90;;;;;;5058938;28;20283;-84
2021/10/01 14:07:40;;;;;;;3.07;0.90;;;18.90;99.90;;;;;;5058656;28;20182;-79
2021/10/01 14:10:08;;;;;;;1.43;0.60;;;18.90;99.90;;;;;;5058540;28;20195;-86
2021/10/01 14:12:33;;;;;;;2.90;1.03;;;18.80;99.90;;;;;;5073945;28;20252;-82
2021/10/01 14:14:59;;;;;;;3.70;0.77;;;18.80;99.90;;;;;;5073711;28;20210;-81
2021/10/01 14:17:25;;;;;;;3.53;0.77;;;18.70;99.90;;;;;;5070466;28;20250;-80
2021/10/01 14:19:50;;;;;;;1.47;0.90;;;18.60;99.90;;;;;;5049159;28;20185;-80
2021/10/01 14:22:16;;;;;;;2.57;0.63;;;18.60;99.90;;;;;;5031500;28;20664;-81
2021/10/01 14:24:42;;;;;;;1.90;0.80;;;18.60;99.90;;;;;;5069450;28;20201;-80
2021/10/01 14:27:08;;;;;;;4.83;0.83;;;18.50;99.90;;;;;;5054856;28;20178;-80